sensor_id;sensor_type;location;lat;lon;timestamp;temperature;humidity
9542;DHT22;4809;48.224;8.572;2023-06-10T00:01:41;16.30;90.90
9542;DHT22;4809;48.224;8.572;2023-06-10T00:04:08;16.20;90.90
9542;DHT22;4809;48.224;8.572;2023-06-10T00:06:34;16.20;90.80
9542;DHT22;4809;48.224;8.572;2023-06-10T00:09:03;16.10;91.00
9542;DHT22;4809;48.224;8.572;2023-06-10T00:11:36;16.10;91.50
9542;DHT22;4809;48.224;8.572;2023-06-10T00:14:02;16.10;91.30
9542;DHT22;4809;48.224;8.572;2023-06-10T00:16:28;16.00;91.70
9542;DHT22;4809;48.224;8.572;2023-06-10T00:18:53;15.90;92.00
9542;DHT22;4809;48.224;8.572;2023-06-10T00:21:21;15.90;92.30
9542;DHT22;4809;48.224;8.572;2023-06-10T00:23:47;15.90;92.40
9542;DHT22;4809;48.224;8.572;2023-06-10T00:26:13;15.90;92.30
9542;DHT22;4809;48.224;8.572;2023-06-10T00:28:39;15.90;92.30
9542;DHT22;4809;48.224;8.572;2023-06-10T00:31:04;15.90;92.50
9542;DHT22;4809;48.224;8.572;2023-06-10T00:33:30;15.90;92.60
9542;DHT22;4809;48.224;8.572;2023-06-10T00:35:56;15.90;92.80
9542;DHT22;4809;48.224;8.572;2023-06-10T00:38:22;15.90;92.70
9542;DHT22;4809;48.224;8.572;2023-06-10T00:40:47;15.80;92.90
9542;DHT22;4809;48.224;8.572;2023-06-10T00:43:13;15.80;93.30
9542;DHT22;4809;48.224;8.572;2023-06-10T00:45:38;15.70;93.50
9542;DHT22;4809;48.224;8.572;2023-06-10T00:48:05;15.60;94.10
9542;DHT22;4809;48.224;8.572;2023-06-10T00:50:31;15.40;94.40
9542;DHT22;4809;48.224;8.572;2023-06-10T00:52:57;15.30;94.80
9542;DHT22;4809;48.224;8.572;2023-06-10T00:55:23;15.20;95.70
9542;DHT22;4809;48.224;8.572;2023-06-10T00:57:50;15.10;95.90
9542;DHT22;4809;48.224;8.572;2023-06-10T01:00:16;15.10;95.80
9542;DHT22;4809;48.224;8.572;2023-06-10T01:02:42;15.20;96.00
9542;DHT22;4809;48.224;8.572;2023-06-10T01:05:09;15.20;96.30
9542;DHT22;4809;48.224;8.572;2023-06-10T01:12:58;15.10;97.10
9542;DHT22;4809;48.224;8.572;2023-06-10T01:15:24;15.10;97.40
9542;DHT22;4809;48.224;8.572;2023-06-10T01:20:24;15.00;97.60
9542;DHT22;4809;48.224;8.572;2023-06-10T01:22:53;15.10;97.90
9542;DHT22;4809;48.224;8.572;2023-06-10T01:25:20;15.10;98.00
9542;DHT22;4809;48.224;8.572;2023-06-10T01:27:54;15.10;97.70
9542;DHT22;4809;48.224;8.572;2023-06-10T01:30:27;15.20;97.90
9542;DHT22;4809;48.224;8.572;2023-06-10T01:32:55;15.30;97.60
9542;DHT22;4809;48.224;8.572;2023-06-10T01:35:24;15.30;97.50
9542;DHT22;4809;48.224;8.572;2023-06-10T01:37:51;15.20;97.70
9542;DHT22;4809;48.224;8.572;2023-06-10T01:40:18;15.20;97.70
9542;DHT22;4809;48.224;8.572;2023-06-10T01:42:45;15.10;97.90
9542;DHT22;4809;48.224;8.572;2023-06-10T01:45:10;15.10;97.90
9542;DHT22;4809;48.224;8.572;2023-06-10T01:47:36;14.90;98.40
9542;DHT22;4809;48.224;8.572;2023-06-10T01:50:02;14.80;99.10
9542;DHT22;4809;48.224;8.572;2023-06-10T01:52:28;14.70;99.50
9542;DHT22;4809;48.224;8.572;2023-06-10T01:54:53;14.70;99.70
9542;DHT22;4809;48.224;8.572;2023-06-10T01:57:19;14.70;99.40
9542;DHT22;4809;48.224;8.572;2023-06-10T01:59:45;14.70;99.70
9542;DHT22;4809;48.224;8.572;2023-06-10T02:02:11;14.80;99.50
9542;DHT22;4809;48.224;8.572;2023-06-10T02:04:37;14.80;99.80
9542;DHT22;4809;48.224;8.572;2023-06-10T02:07:03;14.70;99.90
9542;DHT22;4809;48.224;8.572;2023-06-10T02:09:30;14.70;99.90
9542;DHT22;4809;48.224;8.572;2023-06-10T02:11:56;14.60;99.90
9542;DHT22;4809;48.224;8.572;2023-06-10T02:14:22;14.50;99.90
9542;DHT22;4809;48.224;8.572;2023-06-10T02:16:48;14.50;99.90
9542;DHT22;4809;48.224;8.572;2023-06-10T02:19:13;14.50;99.90
9542;DHT22;4809;48.224;8.572;2023-06-10T02:21:39;14.40;99.90
9542;DHT22;4809;48.224;8.572;2023-06-10T02:24:05;14.40;99.90
9542;DHT22;4809;48.224;8.572;2023-06-10T02:26:31;14.30;99.90
9542;DHT22;4809;48.224;8.572;2023-06-10T02:28:57;14.00;99.90
9542;DHT22;4809;48.224;8.572;2023-06-10T02:31:23;13.90;99.90
9542;DHT22;4809;48.224;8.572;2023-06-10T02:33:50;14.00;99.90
9542;DHT22;4809;48.224;8.572;2023-06-10T02:36:16;13.90;99.90
9542;DHT22;4809;48.224;8.572;2023-06-10T02:38:42;13.90;99.90
9542;DHT22;4809;48.224;8.572;2023-06-10T02:41:07;13.80;99.90
9542;DHT22;4809;48.224;8.572;2023-06-10T02:43:33;13.80;99.90
9542;DHT22;4809;48.224;8.572;2023-06-10T02:45:59;13.80;99.90
9542;DHT22;4809;48.224;8.572;2023-06-10T02:48:25;13.80;99.90
9542;DHT22;4809;48.224;8.572;2023-06-10T02:50:50;13.90;99.90
9542;DHT22;4809;48.224;8.572;2023-06-10T02:53:16;13.80;99.90
9542;DHT22;4809;48.224;8.572;2023-06-10T02:55:42;13.80;99.90
9542;DHT22;4809;48.224;8.572;2023-06-10T02:58:08;13.90;99.90
9542;DHT22;4809;48.224;8.572;2023-06-10T03:00:34;13.80;99.90
9542;DHT22;4809;48.224;8.572;2023-06-10T03:03:01;13.80;99.90
9542;DHT22;4809;48.224;8.572;2023-06-10T03:05:29;13.70;99.90
9542;DHT22;4809;48.224;8.572;2023-06-10T03:07:55;13.70;99.90
9542;DHT22;4809;48.224;8.572;2023-06-10T03:10:20;13.80;99.90
9542;DHT22;4809;48.224;8.572;2023-06-10T03:12:46;13.80;99.90
9542;DHT22;4809;48.224;8.572;2023-06-10T03:15:12;13.90;99.90
9542;DHT22;4809;48.224;8.572;2023-06-10T03:17:38;13.90;99.90
9542;DHT22;4809;48.224;8.572;2023-06-10T03:20:04;13.90;99.90
9542;DHT22;4809;48.224;8.572;2023-06-10T03:22:31;13.90;99.90
9542;DHT22;4809;48.224;8.572;2023-06-10T03:24:57;13.90;99.90
9542;DHT22;4809;48.224;8.572;2023-06-10T03:27:22;13.90;99.90
9542;DHT22;4809;48.224;8.572;2023-06-10T03:29:48;13.90;99.90
9542;DHT22;4809;48.224;8.572;2023-06-10T03:32:14;14.00;99.90
9542;DHT22;4809;48.224;8.572;2023-06-10T03:34:40;14.00;99.90
9542;DHT22;4809;48.224;8.572;2023-06-10T03:37:06;14.00;99.90
9542;DHT22;4809;48.224;8.572;2023-06-10T03:39:32;14.00;99.90
9542;DHT22;4809;48.224;8.572;2023-06-10T03:41:58;14.00;99.90
9542;DHT22;4809;48.224;8.572;2023-06-10T03:44:27;13.90;99.90
9542;DHT22;4809;48.224;8.572;2023-06-10T03:46:56;13.90;99.90
9542;DHT22;4809;48.224;8.572;2023-06-10T03:49:23;13.90;99.90
9542;DHT22;4809;48.224;8.572;2023-06-10T03:51:51;13.90;99.90
9542;DHT22;4809;48.224;8.572;2023-06-10T03:54:19;14.10;99.90
9542;DHT22;4809;48.224;8.572;2023-06-10T03:56:45;14.10;99.90
9542;DHT22;4809;48.224;8.572;2023-06-10T03:59:11;14.10;99.90
9542;DHT22;4809;48.224;8.572;2023-06-10T04:01:36;14.00;99.90
9542;DHT22;4809;48.224;8.572;2023-06-10T04:04:03;14.00;99.90
9542;DHT22;4809;48.224;8.572;2023-06-10T04:06:29;14.00;99.90
9542;DHT22;4809;48.224;8.572;2023-06-10T04:08:55;14.10;99.90
9542;DHT22;4809;48.224;8.572;2023-06-10T04:11:23;14.10;99.90
9542;DHT22;4809;48.224;8.572;2023-06-10T04:13:49;14.10;99.90
9542;DHT22;4809;48.224;8.572;2023-06-10T04:16:15;14.10;99.90
9542;DHT22;4809;48.224;8.572;2023-06-10T04:18:41;14.10;99.90
9542;DHT22;4809;48.224;8.572;2023-06-10T04:21:07;14.20;99.90
9542;DHT22;4809;48.224;8.572;2023-06-10T04:23:35;14.30;99.90
9542;DHT22;4809;48.224;8.572;2023-06-10T04:26:02;14.30;99.90
9542;DHT22;4809;48.224;8.572;2023-06-10T04:28:27;14.30;99.90
9542;DHT22;4809;48.224;8.572;2023-06-10T04:30:53;14.40;99.90
9542;DHT22;4809;48.224;8.572;2023-06-10T04:33:19;14.40;99.90
9542;DHT22;4809;48.224;8.572;2023-06-10T04:35:44;14.40;99.90
9542;DHT22;4809;48.224;8.572;2023-06-10T04:38:13;14.40;99.90
9542;DHT22;4809;48.224;8.572;2023-06-10T04:40:39;14.50;99.90
9542;DHT22;4809;48.224;8.572;2023-06-10T04:43:05;14.60;99.90
9542;DHT22;4809;48.224;8.572;2023-06-10T04:45:31;14.70;99.90
9542;DHT22;4809;48.224;8.572;2023-06-10T04:47:56;14.90;99.90
9542;DHT22;4809;48.224;8.572;2023-06-10T04:50:23;14.90;99.90
9542;DHT22;4809;48.224;8.572;2023-06-10T04:52:49;15.00;99.90
9542;DHT22;4809;48.224;8.572;2023-06-10T04:55:15;15.20;99.90
9542;DHT22;4809;48.224;8.572;2023-06-10T04:57:41;15.30;99.90
9542;DHT22;4809;48.224;8.572;2023-06-10T05:00:07;15.50;99.90
9542;DHT22;4809;48.224;8.572;2023-06-10T05:02:34;15.60;99.90
9542;DHT22;4809;48.224;8.572;2023-06-10T05:04:59;15.70;99.90
9542;DHT22;4809;48.224;8.572;2023-06-10T05:07:25;15.90;99.90
9542;DHT22;4809;48.224;8.572;2023-06-10T05:09:51;16.00;99.90
9542;DHT22;4809;48.224;8.572;2023-06-10T05:12:17;16.20;99.90
9542;DHT22;4809;48.224;8.572;2023-06-10T05:14:42;16.30;99.90
9542;DHT22;4809;48.224;8.572;2023-06-10T05:17:10;16.50;99.90
9542;DHT22;4809;48.224;8.572;2023-06-10T05:19:35;16.60;99.90
9542;DHT22;4809;48.224;8.572;2023-06-10T05:22:02;16.70;99.90
9542;DHT22;4809;48.224;8.572;2023-06-10T05:24:28;16.90;99.90
9542;DHT22;4809;48.224;8.572;2023-06-10T05:26:54;17.00;99.90
9542;DHT22;4809;48.224;8.572;2023-06-10T05:29:20;17.10;99.90
9542;DHT22;4809;48.224;8.572;2023-06-10T05:31:45;17.20;99.90
9542;DHT22;4809;48.224;8.572;2023-06-10T05:34:11;17.30;99.90
9542;DHT22;4809;48.224;8.572;2023-06-10T05:36:37;17.40;99.90
9542;DHT22;4809;48.224;8.572;2023-06-10T05:39:03;17.50;99.90
9542;DHT22;4809;48.224;8.572;2023-06-10T05:41:28;17.60;99.90
9542;DHT22;4809;48.224;8.572;2023-06-10T05:43:54;17.70;99.90
9542;DHT22;4809;48.224;8.572;2023-06-10T05:46:20;17.80;99.90
9542;DHT22;4809;48.224;8.572;2023-06-10T05:48:46;17.90;99.90
9542;DHT22;4809;48.224;8.572;2023-06-10T05:51:11;17.90;99.90
9542;DHT22;4809;48.224;8.572;2023-06-10T05:53:37;17.90;99.70
9542;DHT22;4809;48.224;8.572;2023-06-10T05:56:04;18.00;99.40
9542;DHT22;4809;48.224;8.572;2023-06-10T05:58:29;18.20;99.40
9542;DHT22;4809;48.224;8.572;2023-06-10T06:00:55;18.30;98.90
9542;DHT22;4809;48.224;8.572;2023-06-10T06:03:21;18.40;98.90
9542;DHT22;4809;48.224;8.572;2023-06-10T06:05:47;18.50;98.60
9542;DHT22;4809;48.224;8.572;2023-06-10T06:08:13;18.60;98.10
9542;DHT22;4809;48.224;8.572;2023-06-10T06:10:44;18.70;98.00
9542;DHT22;4809;48.224;8.572;2023-06-10T06:13:10;18.90;97.80
9542;DHT22;4809;48.224;8.572;2023-06-10T06:15:36;19.00;97.20
9542;DHT22;4809;48.224;8.572;2023-06-10T06:18:01;19.10;97.10
9542;DHT22;4809;48.224;8.572;2023-06-10T06:20:27;19.20;96.50
9542;DHT22;4809;48.224;8.572;2023-06-10T06:22:52;19.30;96.50
9542;DHT22;4809;48.224;8.572;2023-06-10T06:25:18;19.40;96.80
9542;DHT22;4809;48.224;8.572;2023-06-10T06:27:44;19.50;96.70
9542;DHT22;4809;48.224;8.572;2023-06-10T06:30:10;19.70;96.50
9542;DHT22;4809;48.224;8.572;2023-06-10T06:32:36;19.80;95.90
9542;DHT22;4809;48.224;8.572;2023-06-10T06:35:02;19.90;95.40
9542;DHT22;4809;48.224;8.572;2023-06-10T06:37:28;20.00;95.20
9542;DHT22;4809;48.224;8.572;2023-06-10T06:39:54;20.30;95.50
9542;DHT22;4809;48.224;8.572;2023-06-10T06:42:20;20.30;95.40
9542;DHT22;4809;48.224;8.572;2023-06-10T06:44:46;20.40;94.60
9542;DHT22;4809;48.224;8.572;2023-06-10T06:47:12;20.60;95.50
9542;DHT22;4809;48.224;8.572;2023-06-10T06:49:38;20.70;94.70
9542;DHT22;4809;48.224;8.572;2023-06-10T06:52:04;20.80;94.60
9542;DHT22;4809;48.224;8.572;2023-06-10T06:54:30;20.90;94.90
9542;DHT22;4809;48.224;8.572;2023-06-10T06:56:56;21.00;93.70
9542;DHT22;4809;48.224;8.572;2023-06-10T06:59:21;21.10;94.70
9542;DHT22;4809;48.224;8.572;2023-06-10T07:01:47;21.20;93.40
9542;DHT22;4809;48.224;8.572;2023-06-10T07:04:15;21.30;93.00
9542;DHT22;4809;48.224;8.572;2023-06-10T07:06:40;21.50;93.00
9542;DHT22;4809;48.224;8.572;2023-06-10T07:09:07;21.60;92.70
9542;DHT22;4809;48.224;8.572;2023-06-10T07:11:34;21.80;93.00
9542;DHT22;4809;48.224;8.572;2023-06-10T07:14:00;21.80;91.40
9542;DHT22;4809;48.224;8.572;2023-06-10T07:16:25;21.90;91.90
9542;DHT22;4809;48.224;8.572;2023-06-10T07:18:53;22.00;91.60
9542;DHT22;4809;48.224;8.572;2023-06-10T07:21:19;22.10;91.30
9542;DHT22;4809;48.224;8.572;2023-06-10T07:23:46;22.20;91.40
9542;DHT22;4809;48.224;8.572;2023-06-10T07:26:12;22.30;91.20
9542;DHT22;4809;48.224;8.572;2023-06-10T07:28:39;22.40;90.90
9542;DHT22;4809;48.224;8.572;2023-06-10T07:31:07;22.60;90.60
9542;DHT22;4809;48.224;8.572;2023-06-10T07:33:33;22.70;90.40
9542;DHT22;4809;48.224;8.572;2023-06-10T07:35:59;22.80;89.70
9542;DHT22;4809;48.224;8.572;2023-06-10T07:38:26;23.00;90.00
9542;DHT22;4809;48.224;8.572;2023-06-10T07:40:51;23.10;89.00
9542;DHT22;4809;48.224;8.572;2023-06-10T07:43:18;23.20;87.20
9542;DHT22;4809;48.224;8.572;2023-06-10T07:45:43;23.10;87.70
9542;DHT22;4809;48.224;8.572;2023-06-10T07:48:09;22.90;88.80
9542;DHT22;4809;48.224;8.572;2023-06-10T07:50:35;22.80;90.20
9542;DHT22;4809;48.224;8.572;2023-06-10T07:53:01;22.80;89.90
9542;DHT22;4809;48.224;8.572;2023-06-10T07:55:27;22.70;90.00
9542;DHT22;4809;48.224;8.572;2023-06-10T07:57:53;22.70;90.80
9542;DHT22;4809;48.224;8.572;2023-06-10T08:00:20;22.80;88.70
9542;DHT22;4809;48.224;8.572;2023-06-10T08:02:46;22.70;90.40
9542;DHT22;4809;48.224;8.572;2023-06-10T08:05:12;22.80;90.60
9542;DHT22;4809;48.224;8.572;2023-06-10T08:07:39;22.90;90.30
9542;DHT22;4809;48.224;8.572;2023-06-10T08:10:06;23.00;90.00
9542;DHT22;4809;48.224;8.572;2023-06-10T08:12:33;23.10;89.00
9542;DHT22;4809;48.224;8.572;2023-06-10T08:14:59;23.10;90.00
9542;DHT22;4809;48.224;8.572;2023-06-10T08:17:25;23.30;88.80
9542;DHT22;4809;48.224;8.572;2023-06-10T08:19:50;23.40;88.00
9542;DHT22;4809;48.224;8.572;2023-06-10T08:22:16;23.60;88.00
9542;DHT22;4809;48.224;8.572;2023-06-10T08:24:42;23.90;87.70
9542;DHT22;4809;48.224;8.572;2023-06-10T08:27:08;24.10;86.40
9542;DHT22;4809;48.224;8.572;2023-06-10T08:29:33;24.30;87.10
9542;DHT22;4809;48.224;8.572;2023-06-10T08:32:00;24.40;85.40
9542;DHT22;4809;48.224;8.572;2023-06-10T08:34:25;24.60;85.60
9542;DHT22;4809;48.224;8.572;2023-06-10T08:36:51;24.80;85.90
9542;DHT22;4809;48.224;8.572;2023-06-10T08:39:19;25.00;84.70
9542;DHT22;4809;48.224;8.572;2023-06-10T08:42:00;25.20;81.00
9542;DHT22;4809;48.224;8.572;2023-06-10T08:44:30;25.30;83.40
9542;DHT22;4809;48.224;8.572;2023-06-10T08:46:59;25.60;82.90
9542;DHT22;4809;48.224;8.572;2023-06-10T08:49:27;25.80;79.50
9542;DHT22;4809;48.224;8.572;2023-06-10T08:51:59;26.00;78.80
9542;DHT22;4809;48.224;8.572;2023-06-10T08:54:31;26.20;78.80
9542;DHT22;4809;48.224;8.572;2023-06-10T08:56:59;26.20;77.10
9542;DHT22;4809;48.224;8.572;2023-06-10T08:59:26;26.20;76.70
9542;DHT22;4809;48.224;8.572;2023-06-10T09:01:52;26.40;80.10
9542;DHT22;4809;48.224;8.572;2023-06-10T09:04:18;26.60;74.80
9542;DHT22;4809;48.224;8.572;2023-06-10T09:06:47;26.60;75.00
9542;DHT22;4809;48.224;8.572;2023-06-10T09:09:14;26.60;73.70
9542;DHT22;4809;48.224;8.572;2023-06-10T09:11:42;26.70;73.50
9542;DHT22;4809;48.224;8.572;2023-06-10T09:14:08;26.80;74.50
9542;DHT22;4809;48.224;8.572;2023-06-10T09:16:34;27.00;73.70
9542;DHT22;4809;48.224;8.572;2023-06-10T09:18:59;27.20;72.90
9542;DHT22;4809;48.224;8.572;2023-06-10T09:21:25;27.40;72.60
9542;DHT22;4809;48.224;8.572;2023-06-10T09:23:52;27.50;71.20
9542;DHT22;4809;48.224;8.572;2023-06-10T09:26:18;27.70;72.80
9542;DHT22;4809;48.224;8.572;2023-06-10T09:28:45;27.70;69.70
9542;DHT22;4809;48.224;8.572;2023-06-10T09:31:13;27.50;69.40
9542;DHT22;4809;48.224;8.572;2023-06-10T09:33:40;27.30;69.50
9542;DHT22;4809;48.224;8.572;2023-06-10T09:36:06;27.30;69.20
9542;DHT22;4809;48.224;8.572;2023-06-10T09:38:34;27.30;69.70
9542;DHT22;4809;48.224;8.572;2023-06-10T09:41:00;27.40;68.70
9542;DHT22;4809;48.224;8.572;2023-06-10T09:43:54;27.30;67.10
9542;DHT22;4809;48.224;8.572;2023-06-10T09:46:20;27.10;68.00
